IDs: Format: Raw Decoded Include TAF

Data at: 1639 UTC 17 Mar 2018

METAR for:KHLX (Hillsville/Twin Cnty, VA, US)
Text:KHLX 171635Z AUTO 23010G15KT 10SM BKN023 BKN032 OVC037 11/00 A2987 RMK AO2 T01091001
Temperature: 10.9°C ( 52°F)
Dewpoint: -0.1°C ( 32°F) [RH = 47%]
Pressure (altimeter):29.87 inches Hg (1011.6 mb)
Winds:from the SW (230 degrees) at 12 MPH (10 knots; 5.1 m/s) gusting to 17 MPH (15 knots; 7.7 m/s)
Visibility:10 or more sm (16+ km)
Ceiling:2300 feet AGL
Clouds: broken clouds at 2300 feet AGL, broken clouds at 3200 feet AGL, overcast cloud deck at 3700 feet AGL
QC Flag:automated observation with no human augmentation